Pagrindinis puslapis
METAR-TAF:

METAR-TAF

Oro uostai :

Trangas, Tailandas

platuma: 07-31N, ilguma: 099-37E, Aukštis: 14 m

Dabartinis oras

Ataskaita buvo paskelbta 15 minutes, ne 21:00 UTC
Ramus vėjas
Temperatūra 23°C
Drėgmė 100%
Slėgis 1008 hPa
Matomumas: 7000 m
Mažai debesys ne aukštis 2000 ft

METAR: VTST 202100Z 00000KT 7000 FEW020 23/23 Q1008 N0SIG

Laikas: 04:15 (21:15 UTC)

Prognozė

Ataskaita buvo paskelbta 4 valandos ir 15 minutes, ne 17:00 UTC
Prognozė galioja nuo 20 metu 18 UTC su 21 metu 18 UTC
Vėjas kt iš Šiaurės
Matomumas 10 km arba daugiau
Mažai debesys ne aukštis 2000 ft
Tapsmas
nuo 20 metu 20 UTC su 20 metu 22 UTC
Matomumas: 3000 m
rūkana
Tapsmas
nuo 21 metu 00 UTC su 21 metu 02 UTC
Vėjas 6 kt iš Pietvakarių
Matomumas 10 km arba daugiau
Tapsmas
nuo 21 metu 12 UTC su 21 metu 14 UTC
Vėjas kt iš Šiaurės

TAF: VTST 201700Z 2018/2118 00000KT 9999 FEW020 BECMG 2020/2022 3000 BR BECMG 2100/2102 22006KT 9999 NSW BECMG 2112/2114 00000KT

Orai ataskaitas ir orų prognozės (METAR, TAF).

turimą stotys yra geltonos ir raudonos taškus žemėlapyje.

Perkelti pele per norėdami pamatyti stoties vardą.

Tada spustelėkite, norėdami matyti oro stebėjimo ir prognozės.

Norėdami pakeisti žemėlapį: spustelėkite ant žalios mygtukų su juodo kryžiaus žemyn,; žalią mygtuką su brūkšneliu, jei norite nutolinti; arba žalių rodyklių gretimoms žemėlapius.


METAR-TAF: